EFW461M EGKK-LPPR
Flight info
| Callsign | EFW461M |
|---|---|
| Flight time | 1h 58m |
| Altitude | 35000 |
| Route | NOVMA1X NOVMA L620 SAM M195 LORKU DCT EBOMO DCT COQUE DCT KORUL DCT ELTEP/N0397F230 T328 ASPOR ASPOR6C |
| Aircraft | A321/M-SDE3FGIJ1KRWXY/SB1 |
Departure
| Time | 2026-04-17 07:35 |
|---|---|
| Airport | London Gatwick Airport (EGKK) |
Arrival
| Time | 2026-04-17 09:33 |
|---|---|
| Airport | Francisco de Sá Carneiro Airport (LPPR) |
| Time | Latitude | Longitude | Altitude | Speed | Heading |
|---|---|---|---|---|---|
| 2026-04-17 07:02 | 51.15445 | -0.16436 | 214 ft | 0 kts | 77° |
| 2026-04-17 07:24 | 51.15445 | -0.16439 | 205 ft | 2 kts | 78° |
| 2026-04-17 07:24 | 51.15440 | -0.16475 | 205 ft | 4 kts | 85° |
| 2026-04-17 07:24 | 51.15445 | -0.16511 | 207 ft | 4 kts | 137° |
| 2026-04-17 07:24 | 51.15465 | -0.16530 | 213 ft | 1 kts | 162° |
| 2026-04-17 07:25 | 51.15469 | -0.16533 | 214 ft | 0 kts | 162° |
| 2026-04-17 07:28 | 51.15468 | -0.16532 | 214 ft | 0 kts | 162° |
| 2026-04-17 07:28 | 51.15454 | -0.16525 | 214 ft | 5 kts | 161° |
| 2026-04-17 07:28 | 51.15419 | -0.16509 | 208 ft | 3 kts | 166° |
| 2026-04-17 07:28 | 51.15418 | -0.16509 | 208 ft | 0 kts | 166° |
| 2026-04-17 07:30 | 51.15413 | -0.16507 | 205 ft | 1 kts | 166° |
| 2026-04-17 07:30 | 51.15399 | -0.16501 | 205 ft | 3 kts | 166° |
| 2026-04-17 07:30 | 51.15375 | -0.16492 | 205 ft | 5 kts | 166° |
| 2026-04-17 07:31 | 51.15326 | -0.16479 | 205 ft | 8 kts | 185° |
| 2026-04-17 07:31 | 51.15295 | -0.16542 | 208 ft | 8 kts | 253° |
| 2026-04-17 07:31 | 51.15282 | -0.16629 | 205 ft | 8 kts | 258° |
| 2026-04-17 07:31 | 51.15248 | -0.16653 | 207 ft | 6 kts | 172° |
| 2026-04-17 07:32 | 51.15237 | -0.16650 | 214 ft | 0 kts | 168° |
| 2026-04-17 07:33 | 51.15231 | -0.16648 | 214 ft | 2 kts | 168° |
| 2026-04-17 07:33 | 51.15216 | -0.16643 | 214 ft | 4 kts | 168° |
| 2026-04-17 07:33 | 51.15183 | -0.16632 | 205 ft | 6 kts | 168° |
| 2026-04-17 07:33 | 51.15146 | -0.16644 | 205 ft | 6 kts | 228° |
| 2026-04-17 07:34 | 51.15136 | -0.16710 | 205 ft | 8 kts | 257° |
| 2026-04-17 07:34 | 51.15089 | -0.17037 | 215 ft | 65 kts | 257° |
| 2026-04-17 07:34 | 51.14942 | -0.18108 | 217 ft | 130 kts | 257° |
| 2026-04-17 07:34 | 51.14690 | -0.19790 | 277 ft | 174 kts | 256° |
| 2026-04-17 07:35 | 51.14413 | -0.21651 | 1013 ft | 171 kts | 257° |
| 2026-04-17 07:35 | 51.14170 | -0.23521 | 1719 ft | 177 kts | 257° |
| 2026-04-17 07:35 | 51.13903 | -0.25523 | 2042 ft | 196 kts | 256° |
| 2026-04-17 07:35 | 51.13586 | -0.27769 | 2280 ft | 219 kts | 255° |
| 2026-04-17 07:36 | 51.13223 | -0.30289 | 2448 ft | 247 kts | 255° |
| 2026-04-17 07:36 | 51.12850 | -0.32949 | 3324 ft | 245 kts | 256° |
| 2026-04-17 07:36 | 51.12497 | -0.35578 | 4161 ft | 246 kts | 256° |
| 2026-04-17 07:36 | 51.12136 | -0.38264 | 4948 ft | 248 kts | 256° |
| 2026-04-17 07:37 | 51.11766 | -0.40974 | 5690 ft | 251 kts | 256° |
| 2026-04-17 07:37 | 51.11281 | -0.43634 | 6399 ft | 255 kts | 245° |
| 2026-04-17 07:37 | 51.10489 | -0.46190 | 7114 ft | 257 kts | 243° |
| 2026-04-17 07:37 | 51.09687 | -0.48749 | 7817 ft | 260 kts | 243° |
| 2026-04-17 07:38 | 51.08877 | -0.51336 | 8530 ft | 262 kts | 244° |
| 2026-04-17 07:38 | 51.08072 | -0.53918 | 9240 ft | 264 kts | 244° |
| 2026-04-17 07:38 | 51.07251 | -0.56559 | 9927 ft | 267 kts | 244° |
| 2026-04-17 07:38 | 51.06422 | -0.59226 | 10569 ft | 270 kts | 243° |
| 2026-04-17 07:39 | 51.05597 | -0.61931 | 11204 ft | 272 kts | 247° |
| 2026-04-17 07:39 | 51.05064 | -0.64840 | 11583 ft | 286 kts | 256° |
| 2026-04-17 07:39 | 51.04626 | -0.68039 | 11714 ft | 307 kts | 256° |
| 2026-04-17 07:39 | 51.04166 | -0.71472 | 11848 ft | 326 kts | 257° |
| 2026-04-17 07:40 | 51.03689 | -0.75061 | 12202 ft | 335 kts | 257° |
| 2026-04-17 07:40 | 51.03203 | -0.78708 | 12749 ft | 339 kts | 256° |
| 2026-04-17 07:40 | 51.02708 | -0.82398 | 13344 ft | 342 kts | 256° |
| 2026-04-17 07:40 | 51.02205 | -0.86116 | 13928 ft | 345 kts | 256° |
| 2026-04-17 07:41 | 51.01701 | -0.89815 | 14463 ft | 348 kts | 256° |
| 2026-04-17 07:41 | 51.01188 | -0.93586 | 15004 ft | 350 kts | 256° |
| 2026-04-17 07:41 | 51.00671 | -0.97385 | 15559 ft | 351 kts | 256° |
| 2026-04-17 07:41 | 51.00151 | -1.01196 | 16096 ft | 353 kts | 256° |
| 2026-04-17 07:42 | 50.99632 | -1.04979 | 16634 ft | 355 kts | 256° |
| 2026-04-17 07:42 | 50.99100 | -1.08834 | 17164 ft | 357 kts | 256° |
| 2026-04-17 07:42 | 50.98561 | -1.12715 | 17694 ft | 359 kts | 256° |
| 2026-04-17 07:42 | 50.98024 | -1.16568 | 18193 ft | 362 kts | 256° |
| 2026-04-17 07:43 | 50.97477 | -1.20482 | 18679 ft | 364 kts | 256° |
| 2026-04-17 07:43 | 50.96925 | -1.24425 | 19116 ft | 366 kts | 256° |
| 2026-04-17 07:43 | 50.96338 | -1.28371 | 19554 ft | 366 kts | 251° |
| 2026-04-17 07:43 | 50.95361 | -1.32053 | 19987 ft | 367 kts | 240° |
| 2026-04-17 07:44 | 50.93888 | -1.35394 | 20414 ft | 369 kts | 229° |
| 2026-04-17 07:44 | 50.91990 | -1.38165 | 20828 ft | 373 kts | 218° |
| 2026-04-17 07:44 | 50.89842 | -1.40425 | 21241 ft | 375 kts | 215° |
| 2026-04-17 07:44 | 50.87644 | -1.42699 | 21710 ft | 375 kts | 216° |
| 2026-04-17 07:45 | 50.85456 | -1.44970 | 22127 ft | 377 kts | 216° |
| 2026-04-17 07:45 | 50.83279 | -1.47238 | 22534 ft | 379 kts | 216° |
| 2026-04-17 07:45 | 50.81063 | -1.49549 | 22934 ft | 380 kts | 216° |
| 2026-04-17 07:45 | 50.78844 | -1.51854 | 23330 ft | 382 kts | 216° |
| 2026-04-17 07:46 | 50.76630 | -1.54150 | 23726 ft | 384 kts | 216° |
| 2026-04-17 07:46 | 50.74382 | -1.56475 | 24062 ft | 386 kts | 216° |
| 2026-04-17 07:46 | 50.72127 | -1.58807 | 24384 ft | 387 kts | 216° |
| 2026-04-17 07:46 | 50.69887 | -1.61120 | 24703 ft | 389 kts | 216° |
| 2026-04-17 07:47 | 50.67613 | -1.63462 | 25035 ft | 391 kts | 216° |
| 2026-04-17 07:47 | 50.65325 | -1.65813 | 25334 ft | 393 kts | 216° |
| 2026-04-17 07:47 | 50.63024 | -1.68169 | 25623 ft | 394 kts | 216° |
| 2026-04-17 07:47 | 50.60741 | -1.70503 | 25890 ft | 397 kts | 216° |
| 2026-04-17 07:48 | 50.58408 | -1.72898 | 26189 ft | 399 kts | 216° |
| 2026-04-17 07:48 | 50.56062 | -1.75308 | 26499 ft | 401 kts | 216° |
| 2026-04-17 07:48 | 50.53748 | -1.77682 | 26794 ft | 403 kts | 216° |
| 2026-04-17 07:48 | 50.51390 | -1.80096 | 27105 ft | 404 kts | 216° |
| 2026-04-17 07:49 | 50.49013 | -1.82522 | 27408 ft | 406 kts | 216° |
| 2026-04-17 07:49 | 50.46664 | -1.84916 | 27687 ft | 408 kts | 216° |
| 2026-04-17 07:49 | 50.44269 | -1.87353 | 28049 ft | 408 kts | 216° |
| 2026-04-17 07:49 | 50.41876 | -1.89787 | 28364 ft | 409 kts | 216° |
| 2026-04-17 07:50 | 50.39504 | -1.92192 | 28614 ft | 411 kts | 216° |
| 2026-04-17 07:50 | 50.37079 | -1.94646 | 28837 ft | 413 kts | 216° |
| 2026-04-17 07:50 | 50.34690 | -1.97068 | 29079 ft | 415 kts | 216° |
| 2026-04-17 07:50 | 50.32245 | -1.99540 | 29330 ft | 416 kts | 216° |
| 2026-04-17 07:51 | 50.29804 | -2.02001 | 29552 ft | 418 kts | 216° |
| 2026-04-17 07:51 | 50.27389 | -2.04435 | 29764 ft | 419 kts | 216° |
| 2026-04-17 07:51 | 50.24929 | -2.06914 | 30045 ft | 418 kts | 216° |
| 2026-04-17 07:51 | 50.22472 | -2.09368 | 30347 ft | 417 kts | 216° |
| 2026-04-17 07:52 | 50.20028 | -2.11768 | 30610 ft | 417 kts | 216° |
| 2026-04-17 07:52 | 50.17564 | -2.14162 | 30863 ft | 416 kts | 215° |
| 2026-04-17 07:52 | 50.15093 | -2.16554 | 31059 ft | 417 kts | 215° |
| 2026-04-17 07:52 | 50.12627 | -2.18939 | 31283 ft | 417 kts | 215° |
| 2026-04-17 07:53 | 50.10186 | -2.21299 | 31520 ft | 417 kts | 215° |
| 2026-04-17 07:53 | 50.07713 | -2.23690 | 31760 ft | 416 kts | 215° |
| 2026-04-17 07:53 | 50.05240 | -2.26081 | 32011 ft | 416 kts | 215° |
| 2026-04-17 07:53 | 50.02801 | -2.28440 | 32181 ft | 416 kts | 215° |
| 2026-04-17 07:54 | 49.97917 | -2.33150 | 32190 ft | 412 kts | 215° |
| 2026-04-17 07:54 | 49.93027 | -2.37857 | 32182 ft | 413 kts | 215° |
| 2026-04-17 07:55 | 49.88145 | -2.42567 | 32192 ft | 415 kts | 215° |
| 2026-04-17 07:55 | 49.83252 | -2.47276 | 32193 ft | 415 kts | 215° |
| 2026-04-17 07:56 | 49.78325 | -2.51997 | 32193 ft | 415 kts | 215° |
| 2026-04-17 07:56 | 49.73425 | -2.56677 | 32191 ft | 415 kts | 215° |
| 2026-04-17 07:57 | 49.68501 | -2.61364 | 32196 ft | 417 kts | 214° |
| 2026-04-17 07:57 | 49.63568 | -2.66052 | 32192 ft | 417 kts | 214° |
| 2026-04-17 07:58 | 49.58635 | -2.70747 | 32198 ft | 416 kts | 214° |
| 2026-04-17 07:58 | 49.53734 | -2.75390 | 32193 ft | 414 kts | 214° |
| 2026-04-17 07:59 | 49.48804 | -2.80048 | 32175 ft | 414 kts | 214° |
| 2026-04-17 07:59 | 49.43888 | -2.84681 | 32198 ft | 417 kts | 214° |
| 2026-04-17 08:00 | 49.38963 | -2.89313 | 32198 ft | 416 kts | 214° |
| 2026-04-17 08:00 | 49.34008 | -2.93958 | 32197 ft | 416 kts | 214° |
| 2026-04-17 08:01 | 49.29078 | -2.98572 | 32198 ft | 416 kts | 214° |
| 2026-04-17 08:01 | 49.24109 | -3.03210 | 32189 ft | 418 kts | 214° |
| 2026-04-17 08:02 | 49.19145 | -3.07831 | 32199 ft | 419 kts | 214° |
| 2026-04-17 08:02 | 49.14185 | -3.12444 | 32194 ft | 417 kts | 214° |
| 2026-04-17 08:03 | 49.09210 | -3.17056 | 32205 ft | 416 kts | 214° |
| 2026-04-17 08:03 | 49.04270 | -3.21618 | 32202 ft | 416 kts | 213° |
| 2026-04-17 08:04 | 48.99291 | -3.26204 | 32198 ft | 418 kts | 213° |
| 2026-04-17 08:04 | 48.94315 | -3.30776 | 32197 ft | 418 kts | 213° |
| 2026-04-17 08:05 | 48.89349 | -3.35335 | 32191 ft | 418 kts | 213° |
| 2026-04-17 08:05 | 48.84383 | -3.39888 | 32192 ft | 418 kts | 213° |
| 2026-04-17 08:06 | 48.79383 | -3.44456 | 32194 ft | 418 kts | 213° |
| 2026-04-17 08:06 | 48.74405 | -3.48990 | 32212 ft | 418 kts | 213° |
| 2026-04-17 08:07 | 48.69455 | -3.53481 | 32194 ft | 415 kts | 213° |
| 2026-04-17 08:07 | 48.64487 | -3.57999 | 32193 ft | 415 kts | 213° |
| 2026-04-17 08:08 | 48.59556 | -3.62472 | 32194 ft | 415 kts | 213° |
| 2026-04-17 08:08 | 48.54571 | -3.66973 | 32196 ft | 417 kts | 213° |
| 2026-04-17 08:09 | 48.49587 | -3.71450 | 32199 ft | 417 kts | 213° |
| 2026-04-17 08:09 | 48.44616 | -3.75918 | 32202 ft | 417 kts | 213° |
| 2026-04-17 08:10 | 48.39619 | -3.80401 | 32205 ft | 417 kts | 213° |
| 2026-04-17 08:10 | 48.34637 | -3.84867 | 32200 ft | 418 kts | 213° |
| 2026-04-17 08:11 | 48.29659 | -3.89314 | 32203 ft | 416 kts | 212° |
| 2026-04-17 08:11 | 48.24675 | -3.93756 | 32206 ft | 416 kts | 212° |
| 2026-04-17 08:12 | 48.19717 | -3.98163 | 32205 ft | 416 kts | 212° |
| 2026-04-17 08:12 | 48.14738 | -4.02570 | 32195 ft | 416 kts | 212° |
| 2026-04-17 08:13 | 48.09715 | -4.07011 | 32217 ft | 418 kts | 212° |
| 2026-04-17 08:14 | 48.02213 | -4.13626 | 32220 ft | 418 kts | 212° |
| 2026-04-17 08:14 | 47.97229 | -4.18008 | 32220 ft | 418 kts | 212° |
| 2026-04-17 08:15 | 47.92205 | -4.22418 | 32207 ft | 419 kts | 212° |
| 2026-04-17 08:15 | 47.87186 | -4.26822 | 32216 ft | 419 kts | 212° |
| 2026-04-17 08:16 | 47.82151 | -4.31224 | 32216 ft | 418 kts | 212° |
| 2026-04-17 08:16 | 47.77204 | -4.35699 | 32203 ft | 418 kts | 213° |
| 2026-04-17 08:17 | 47.72307 | -4.40293 | 32204 ft | 418 kts | 213° |
| 2026-04-17 08:17 | 47.67356 | -4.44917 | 32202 ft | 419 kts | 213° |
| 2026-04-17 08:18 | 47.62418 | -4.49475 | 32201 ft | 420 kts | 213° |
| 2026-04-17 08:18 | 47.57461 | -4.54034 | 32217 ft | 420 kts | 213° |
| 2026-04-17 08:19 | 47.52480 | -4.58604 | 32214 ft | 420 kts | 213° |
| 2026-04-17 08:19 | 47.47530 | -4.63135 | 32210 ft | 421 kts | 213° |
| 2026-04-17 08:20 | 47.43370 | -4.66937 | 32209 ft | 422 kts | 213° |
| 2026-04-17 08:20 | 47.38359 | -4.71512 | 32212 ft | 422 kts | 213° |
| 2026-04-17 08:21 | 47.33384 | -4.76038 | 32216 ft | 422 kts | 213° |
| 2026-04-17 08:21 | 47.28378 | -4.80581 | 32206 ft | 422 kts | 213° |
| 2026-04-17 08:22 | 47.23381 | -4.85106 | 32218 ft | 423 kts | 213° |
| 2026-04-17 08:22 | 47.18396 | -4.89612 | 32220 ft | 423 kts | 213° |
| 2026-04-17 08:23 | 47.13357 | -4.94159 | 32220 ft | 423 kts | 213° |
| 2026-04-17 08:23 | 47.08375 | -4.98641 | 32222 ft | 421 kts | 213° |
| 2026-04-17 08:24 | 47.03391 | -5.03113 | 32221 ft | 421 kts | 213° |
| 2026-04-17 08:24 | 46.98402 | -5.07597 | 32225 ft | 421 kts | 213° |
| 2026-04-17 08:25 | 46.93393 | -5.12092 | 32227 ft | 421 kts | 213° |
| 2026-04-17 08:25 | 46.88415 | -5.16550 | 32225 ft | 421 kts | 213° |
| 2026-04-17 08:26 | 46.83430 | -5.21007 | 32224 ft | 421 kts | 213° |
| 2026-04-17 08:26 | 46.78407 | -5.25494 | 32223 ft | 421 kts | 213° |
| 2026-04-17 08:27 | 46.73440 | -5.29915 | 32233 ft | 420 kts | 213° |
| 2026-04-17 08:27 | 46.68444 | -5.34344 | 32228 ft | 419 kts | 213° |
| 2026-04-17 08:28 | 46.63481 | -5.38741 | 32223 ft | 419 kts | 213° |
| 2026-04-17 08:28 | 46.58477 | -5.43173 | 32225 ft | 419 kts | 213° |
| 2026-04-17 08:29 | 46.53516 | -5.47550 | 32226 ft | 419 kts | 213° |
| 2026-04-17 08:29 | 46.48550 | -5.51913 | 32225 ft | 419 kts | 213° |
| 2026-04-17 08:30 | 46.43544 | -5.56309 | 32226 ft | 419 kts | 213° |
| 2026-04-17 08:30 | 46.38574 | -5.60650 | 32229 ft | 418 kts | 213° |
| 2026-04-17 08:31 | 46.33590 | -5.65017 | 32229 ft | 417 kts | 213° |
| 2026-04-17 08:31 | 46.28643 | -5.69335 | 32228 ft | 416 kts | 213° |
| 2026-04-17 08:32 | 46.23666 | -5.73655 | 32229 ft | 416 kts | 213° |
| 2026-04-17 08:32 | 46.18724 | -5.77943 | 32228 ft | 415 kts | 213° |
| 2026-04-17 08:33 | 46.13792 | -5.82226 | 32227 ft | 415 kts | 213° |
| 2026-04-17 08:33 | 46.08829 | -5.86520 | 32225 ft | 415 kts | 213° |
| 2026-04-17 08:34 | 46.03897 | -5.90782 | 32225 ft | 415 kts | 213° |
| 2026-04-17 08:34 | 45.98953 | -5.95039 | 32240 ft | 414 kts | 213° |
| 2026-04-17 08:35 | 45.93993 | -5.99299 | 32228 ft | 413 kts | 213° |
| 2026-04-17 08:35 | 45.89074 | -6.03512 | 32228 ft | 413 kts | 213° |
| 2026-04-17 08:36 | 45.84135 | -6.07743 | 32229 ft | 413 kts | 213° |
| 2026-04-17 08:36 | 45.79209 | -6.11953 | 32218 ft | 413 kts | 213° |
| 2026-04-17 08:37 | 45.74287 | -6.16140 | 32228 ft | 412 kts | 213° |
| 2026-04-17 08:37 | 45.69364 | -6.20330 | 32223 ft | 412 kts | 213° |
| 2026-04-17 08:38 | 45.64415 | -6.24532 | 32225 ft | 412 kts | 213° |
| 2026-04-17 08:38 | 45.59465 | -6.28716 | 32199 ft | 412 kts | 213° |
| 2026-04-17 08:39 | 45.54552 | -6.32866 | 32233 ft | 411 kts | 213° |
| 2026-04-17 08:39 | 45.49647 | -6.37010 | 32230 ft | 411 kts | 213° |
| 2026-04-17 08:40 | 45.44712 | -6.41163 | 32224 ft | 411 kts | 213° |
| 2026-04-17 08:40 | 45.39795 | -6.45304 | 32226 ft | 411 kts | 213° |
| 2026-04-17 08:41 | 45.34877 | -6.49429 | 32225 ft | 411 kts | 213° |
| 2026-04-17 08:41 | 45.29933 | -6.53560 | 32224 ft | 412 kts | 213° |
| 2026-04-17 08:42 | 45.25007 | -6.57663 | 32237 ft | 411 kts | 213° |
| 2026-04-17 08:42 | 45.20073 | -6.61767 | 32222 ft | 410 kts | 213° |
| 2026-04-17 08:43 | 45.15178 | -6.65843 | 32220 ft | 410 kts | 213° |
| 2026-04-17 08:43 | 45.10242 | -6.69938 | 32227 ft | 410 kts | 213° |
| 2026-04-17 08:44 | 45.05334 | -6.74007 | 32225 ft | 409 kts | 213° |
| 2026-04-17 08:44 | 45.00426 | -6.78059 | 32229 ft | 410 kts | 213° |
| 2026-04-17 08:45 | 44.95492 | -6.82125 | 32224 ft | 410 kts | 213° |
| 2026-04-17 08:45 | 44.90584 | -6.86161 | 32222 ft | 410 kts | 213° |
| 2026-04-17 08:46 | 44.85683 | -6.90179 | 32218 ft | 408 kts | 213° |
| 2026-04-17 08:46 | 44.80419 | -6.93235 | 32225 ft | 414 kts | 200° |
| 2026-04-17 08:47 | 44.74860 | -6.95474 | 32222 ft | 414 kts | 200° |
| 2026-04-17 08:47 | 44.69349 | -6.97690 | 32221 ft | 414 kts | 200° |
| 2026-04-17 08:48 | 44.63796 | -6.99928 | 32220 ft | 414 kts | 200° |
| 2026-04-17 08:48 | 44.58276 | -7.02139 | 32221 ft | 414 kts | 200° |
| 2026-04-17 08:49 | 44.52718 | -7.04364 | 32219 ft | 414 kts | 200° |
| 2026-04-17 08:49 | 44.47202 | -7.06570 | 32220 ft | 414 kts | 200° |
| 2026-04-17 08:50 | 44.41648 | -7.08788 | 32221 ft | 414 kts | 200° |
| 2026-04-17 08:50 | 44.36118 | -7.10996 | 32221 ft | 415 kts | 200° |
| 2026-04-17 08:51 | 44.30580 | -7.13194 | 32222 ft | 415 kts | 200° |
| 2026-04-17 08:51 | 44.25019 | -7.15402 | 32221 ft | 415 kts | 200° |
| 2026-04-17 08:52 | 44.19455 | -7.17606 | 32209 ft | 415 kts | 199° |
| 2026-04-17 08:52 | 44.13910 | -7.19792 | 32220 ft | 415 kts | 199° |
| 2026-04-17 08:53 | 44.08359 | -7.21980 | 32227 ft | 415 kts | 199° |
| 2026-04-17 08:53 | 44.02828 | -7.24152 | 32216 ft | 413 kts | 199° |
| 2026-04-17 08:54 | 43.97286 | -7.26332 | 32210 ft | 414 kts | 199° |
| 2026-04-17 08:54 | 43.91716 | -7.28524 | 32213 ft | 415 kts | 199° |
| 2026-04-17 08:55 | 43.86169 | -7.30702 | 32218 ft | 415 kts | 199° |
| 2026-04-17 08:55 | 43.80616 | -7.32870 | 32215 ft | 415 kts | 199° |
| 2026-04-17 08:56 | 43.75056 | -7.35034 | 32216 ft | 416 kts | 199° |
| 2026-04-17 08:56 | 43.69464 | -7.37200 | 32215 ft | 416 kts | 199° |
| 2026-04-17 08:57 | 43.63909 | -7.39365 | 32214 ft | 417 kts | 199° |
| 2026-04-17 08:57 | 43.58315 | -7.41542 | 32195 ft | 417 kts | 199° |
| 2026-04-17 08:58 | 43.52744 | -7.43694 | 32214 ft | 418 kts | 199° |
| 2026-04-17 08:58 | 43.47128 | -7.45855 | 32217 ft | 418 kts | 199° |
| 2026-04-17 08:59 | 43.41553 | -7.48003 | 32220 ft | 418 kts | 199° |
| 2026-04-17 08:59 | 43.35956 | -7.50149 | 32219 ft | 418 kts | 199° |
| 2026-04-17 09:00 | 43.30360 | -7.52297 | 32221 ft | 418 kts | 199° |
| 2026-04-17 09:00 | 43.24736 | -7.54463 | 32220 ft | 418 kts | 199° |
| 2026-04-17 09:01 | 43.19146 | -7.56598 | 32219 ft | 418 kts | 199° |
| 2026-04-17 09:01 | 43.13552 | -7.58734 | 32217 ft | 418 kts | 198° |
| 2026-04-17 09:02 | 43.07955 | -7.60859 | 32222 ft | 418 kts | 198° |
| 2026-04-17 09:02 | 43.02371 | -7.62984 | 32220 ft | 417 kts | 198° |
| 2026-04-17 09:03 | 42.96748 | -7.65120 | 32208 ft | 417 kts | 198° |
| 2026-04-17 09:03 | 42.91175 | -7.67235 | 32211 ft | 418 kts | 198° |
| 2026-04-17 09:04 | 42.85560 | -7.69358 | 32211 ft | 417 kts | 198° |
| 2026-04-17 09:04 | 42.79971 | -7.71467 | 32206 ft | 417 kts | 198° |
| 2026-04-17 09:05 | 42.74385 | -7.73571 | 32191 ft | 418 kts | 198° |
| 2026-04-17 09:05 | 42.68795 | -7.75674 | 32203 ft | 418 kts | 198° |
| 2026-04-17 09:06 | 42.63174 | -7.77779 | 32204 ft | 418 kts | 198° |
| 2026-04-17 09:06 | 42.57545 | -7.79890 | 32201 ft | 419 kts | 198° |
| 2026-04-17 09:07 | 42.51956 | -7.81988 | 32201 ft | 418 kts | 198° |
| 2026-04-17 09:07 | 42.46326 | -7.84104 | 32199 ft | 418 kts | 198° |
| 2026-04-17 09:08 | 42.40724 | -7.86199 | 32190 ft | 419 kts | 198° |
| 2026-04-17 09:08 | 42.35090 | -7.88302 | 32190 ft | 419 kts | 198° |
| 2026-04-17 09:08 | 42.32319 | -7.89336 | 32062 ft | 415 kts | 198° |
| 2026-04-17 09:09 | 42.29521 | -7.90379 | 31369 ft | 413 kts | 198° |
| 2026-04-17 09:09 | 42.26750 | -7.91411 | 30798 ft | 410 kts | 198° |
| 2026-04-17 09:09 | 42.24043 | -7.92416 | 30256 ft | 406 kts | 198° |
| 2026-04-17 09:09 | 42.21323 | -7.93425 | 29859 ft | 403 kts | 198° |
| 2026-04-17 09:10 | 42.15898 | -7.95443 | 29279 ft | 402 kts | 198° |
| 2026-04-17 09:10 | 42.13243 | -7.96428 | 28935 ft | 396 kts | 198° |
| 2026-04-17 09:10 | 42.10603 | -7.97404 | 28438 ft | 389 kts | 198° |
| 2026-04-17 09:11 | 42.08010 | -7.98359 | 27950 ft | 383 kts | 198° |
| 2026-04-17 09:11 | 42.05458 | -7.99295 | 27474 ft | 377 kts | 198° |
| 2026-04-17 09:11 | 42.02966 | -8.00208 | 27011 ft | 372 kts | 198° |
| 2026-04-17 09:11 | 42.00478 | -8.01122 | 26543 ft | 367 kts | 198° |
| 2026-04-17 09:12 | 41.98850 | -8.01721 | 26242 ft | 363 kts | 198° |
| 2026-04-17 09:12 | 41.96409 | -8.02620 | 25795 ft | 359 kts | 198° |
| 2026-04-17 09:12 | 41.94042 | -8.03494 | 25361 ft | 355 kts | 198° |
| 2026-04-17 09:12 | 41.91664 | -8.04372 | 24930 ft | 352 kts | 198° |
| 2026-04-17 09:13 | 41.89301 | -8.05243 | 24495 ft | 351 kts | 198° |
| 2026-04-17 09:13 | 41.86946 | -8.06111 | 24081 ft | 349 kts | 198° |
| 2026-04-17 09:13 | 41.84632 | -8.06964 | 23662 ft | 347 kts | 198° |
| 2026-04-17 09:13 | 41.82309 | -8.07855 | 23183 ft | 344 kts | 202° |
| 2026-04-17 09:14 | 41.80125 | -8.09141 | 22764 ft | 340 kts | 211° |
| 2026-04-17 09:14 | 41.78079 | -8.10681 | 22349 ft | 339 kts | 211° |
| 2026-04-17 09:14 | 41.76018 | -8.12231 | 21946 ft | 337 kts | 211° |
| 2026-04-17 09:14 | 41.73991 | -8.13748 | 21533 ft | 335 kts | 211° |
| 2026-04-17 09:15 | 41.71959 | -8.15264 | 21117 ft | 334 kts | 211° |
| 2026-04-17 09:15 | 41.69874 | -8.16658 | 20706 ft | 334 kts | 204° |
| 2026-04-17 09:15 | 41.67676 | -8.17685 | 20265 ft | 334 kts | 201° |
| 2026-04-17 09:15 | 41.65480 | -8.18688 | 19841 ft | 332 kts | 201° |
| 2026-04-17 09:16 | 41.63313 | -8.19682 | 19411 ft | 331 kts | 201° |
| 2026-04-17 09:16 | 41.61134 | -8.20682 | 18958 ft | 329 kts | 201° |
| 2026-04-17 09:16 | 41.58993 | -8.21663 | 18525 ft | 328 kts | 201° |
| 2026-04-17 09:16 | 41.56838 | -8.22646 | 18031 ft | 326 kts | 201° |
| 2026-04-17 09:17 | 41.54686 | -8.23627 | 17581 ft | 324 kts | 201° |
| 2026-04-17 09:17 | 41.52551 | -8.24602 | 17115 ft | 323 kts | 201° |
| 2026-04-17 09:17 | 41.50452 | -8.25559 | 16678 ft | 321 kts | 201° |
| 2026-04-17 09:17 | 41.48332 | -8.26521 | 16228 ft | 320 kts | 201° |
| 2026-04-17 09:18 | 41.46223 | -8.27477 | 15764 ft | 319 kts | 201° |
| 2026-04-17 09:18 | 41.44119 | -8.28435 | 15325 ft | 318 kts | 201° |
| 2026-04-17 09:18 | 41.42054 | -8.29375 | 14887 ft | 316 kts | 201° |
| 2026-04-17 09:18 | 41.39969 | -8.30325 | 14427 ft | 315 kts | 200° |
| 2026-04-17 09:19 | 41.37898 | -8.31266 | 13985 ft | 313 kts | 200° |
| 2026-04-17 09:19 | 41.35837 | -8.32201 | 13507 ft | 311 kts | 200° |
| 2026-04-17 09:19 | 41.33812 | -8.33120 | 13067 ft | 310 kts | 200° |
| 2026-04-17 09:19 | 41.31769 | -8.34046 | 12619 ft | 308 kts | 200° |
| 2026-04-17 09:20 | 41.29742 | -8.34967 | 12209 ft | 317 kts | 200° |
| 2026-04-17 09:20 | 41.27667 | -8.36080 | 11782 ft | 323 kts | 211° |
| 2026-04-17 09:20 | 41.25984 | -8.37978 | 11502 ft | 322 kts | 231° |
| 2026-04-17 09:20 | 41.24905 | -8.40585 | 11252 ft | 324 kts | 251° |
| 2026-04-17 09:21 | 41.24623 | -8.43550 | 11013 ft | 326 kts | 272° |
| 2026-04-17 09:21 | 41.25207 | -8.46477 | 10778 ft | 330 kts | 294° |
| 2026-04-17 09:21 | 41.26565 | -8.48896 | 10540 ft | 335 kts | 316° |
| 2026-04-17 09:21 | 41.28554 | -8.50519 | 10219 ft | 337 kts | 338° |
| 2026-04-17 09:22 | 41.30817 | -8.51197 | 10022 ft | 326 kts | 348° |
| 2026-04-17 09:22 | 41.32983 | -8.51736 | 9876 ft | 312 kts | 347° |
| 2026-04-17 09:22 | 41.35078 | -8.52279 | 9669 ft | 302 kts | 347° |
| 2026-04-17 09:22 | 41.37119 | -8.52820 | 9314 ft | 298 kts | 346° |
| 2026-04-17 09:23 | 41.39149 | -8.53366 | 8922 ft | 296 kts | 346° |
| 2026-04-17 09:23 | 41.41139 | -8.53905 | 8539 ft | 294 kts | 346° |
| 2026-04-17 09:23 | 41.43141 | -8.54443 | 8149 ft | 293 kts | 347° |
| 2026-04-17 09:23 | 41.45132 | -8.54974 | 7763 ft | 291 kts | 347° |
| 2026-04-17 09:24 | 41.47117 | -8.55504 | 7399 ft | 290 kts | 347° |
| 2026-04-17 09:24 | 41.49093 | -8.56032 | 7028 ft | 288 kts | 347° |
| 2026-04-17 09:24 | 41.51064 | -8.56559 | 6675 ft | 287 kts | 347° |
| 2026-04-17 09:24 | 41.52997 | -8.57079 | 6292 ft | 285 kts | 345° |
| 2026-04-17 09:25 | 41.54807 | -8.58085 | 5911 ft | 279 kts | 323° |
| 2026-04-17 09:25 | 41.56156 | -8.59895 | 5523 ft | 273 kts | 300° |
| 2026-04-17 09:25 | 41.56865 | -8.62177 | 5138 ft | 268 kts | 278° |
| 2026-04-17 09:25 | 41.56882 | -8.64637 | 4724 ft | 263 kts | 256° |
| 2026-04-17 09:26 | 41.56222 | -8.66891 | 4328 ft | 259 kts | 235° |
| 2026-04-17 09:26 | 41.55204 | -8.68846 | 4017 ft | 257 kts | 233° |
| 2026-04-17 09:26 | 41.54163 | -8.70824 | 4009 ft | 261 kts | 233° |
| 2026-04-17 09:26 | 41.53126 | -8.72748 | 4011 ft | 246 kts | 227° |
| 2026-04-17 09:27 | 41.51857 | -8.74085 | 4010 ft | 227 kts | 205° |
| 2026-04-17 09:27 | 41.50406 | -8.74644 | 3984 ft | 210 kts | 184° |
| 2026-04-17 09:27 | 41.48965 | -8.74491 | 3936 ft | 207 kts | 169° |
| 2026-04-17 09:27 | 41.47569 | -8.74119 | 3894 ft | 206 kts | 169° |
| 2026-04-17 09:28 | 41.46161 | -8.73746 | 3766 ft | 202 kts | 169° |
| 2026-04-17 09:28 | 41.44823 | -8.73392 | 3553 ft | 190 kts | 169° |
| 2026-04-17 09:28 | 41.43554 | -8.73058 | 3319 ft | 180 kts | 169° |
| 2026-04-17 09:28 | 41.42366 | -8.72744 | 3107 ft | 173 kts | 169° |
| 2026-04-17 09:29 | 41.41205 | -8.72439 | 2906 ft | 166 kts | 169° |
| 2026-04-17 09:29 | 41.40082 | -8.72143 | 2716 ft | 164 kts | 168° |
| 2026-04-17 09:29 | 41.38963 | -8.71848 | 2540 ft | 166 kts | 168° |
| 2026-04-17 09:29 | 41.37826 | -8.71548 | 2313 ft | 165 kts | 168° |
| 2026-04-17 09:30 | 41.36700 | -8.71252 | 2104 ft | 164 kts | 168° |
| 2026-04-17 09:30 | 41.35587 | -8.70959 | 1907 ft | 164 kts | 168° |
| 2026-04-17 09:30 | 41.34462 | -8.70663 | 1707 ft | 164 kts | 168° |
| 2026-04-17 09:30 | 41.33352 | -8.70371 | 1499 ft | 164 kts | 168° |
| 2026-04-17 09:31 | 41.32232 | -8.70076 | 1301 ft | 163 kts | 168° |
| 2026-04-17 09:31 | 41.31160 | -8.69795 | 1104 ft | 151 kts | 167° |
| 2026-04-17 09:31 | 41.30142 | -8.69527 | 925 ft | 147 kts | 167° |
| 2026-04-17 09:31 | 41.29142 | -8.69265 | 748 ft | 146 kts | 168° |
| 2026-04-17 09:32 | 41.28161 | -8.69007 | 580 ft | 145 kts | 168° |
| 2026-04-17 09:32 | 41.27172 | -8.68745 | 379 ft | 145 kts | 167° |
| 2026-04-17 09:32 | 41.26189 | -8.68472 | 242 ft | 144 kts | 168° |
| 2026-04-17 09:32 | 41.25256 | -8.68239 | 218 ft | 122 kts | 168° |
| 2026-04-17 09:33 | 41.24595 | -8.68067 | 243 ft | 73 kts | 171° |
| 2026-04-17 09:33 | 41.24225 | -8.67975 | 248 ft | 47 kts | 168° |
| 2026-04-17 09:33 | 41.23956 | -8.67901 | 252 ft | 22 kts | 169° |
| 2026-04-17 09:33 | 41.23892 | -8.67855 | 254 ft | 9 kts | 117° |
| 2026-04-17 09:34 | 41.23899 | -8.67767 | 253 ft | 11 kts | 77° |
| 2026-04-17 09:34 | 41.23918 | -8.67655 | 253 ft | 13 kts | 77° |
| 2026-04-17 09:34 | 41.23926 | -8.67535 | 255 ft | 12 kts | 108° |
| 2026-04-17 09:34 | 41.23857 | -8.67483 | 257 ft | 12 kts | 168° |
| 2026-04-17 09:35 | 41.23775 | -8.67461 | 257 ft | 9 kts | 168° |
| 2026-04-17 09:35 | 41.23735 | -8.67450 | 258 ft | 6 kts | 168° |
| 2026-04-17 09:35 | 41.23689 | -8.67437 | 259 ft | 7 kts | 168° |
| 2026-04-17 09:35 | 41.23643 | -8.67423 | 260 ft | 7 kts | 168° |
| 2026-04-17 09:36 | 41.23602 | -8.67404 | 261 ft | 6 kts | 137° |
| 2026-04-17 09:36 | 41.23595 | -8.67341 | 260 ft | 9 kts | 91° |
| 2026-04-17 09:36 | 41.23594 | -8.67270 | 258 ft | 5 kts | 90° |
| 2026-04-17 09:36 | 41.23594 | -8.67241 | 257 ft | 1 kts | 92° |
| 2026-04-17 09:37 | 41.23594 | -8.67238 | 257 ft | 0 kts | 92° |